Time;durP1;ratioP1;P1;durP2;ratioP2;P2;SDS_P1;SDS_P2;PMS_P1;PMS_P2;Temp;Humidity;BMP_temperature;BMP_pressure;BME280_temperature;BME280_humidity;BME280_pressure;Samples;Min_cycle;Max_cycle;Signal;HPM_P1;HPM_P2
2021/11/14 00:02:02;;;;;;;219.73;54.75;;;9.40;99.90;;;;;;5029827;28;20064;-88
2021/11/14 00:04:28;;;;;;;191.68;58.28;;;9.40;99.90;;;;;;5029522;28;20064;-89
2021/11/14 00:06:53;;;;;;;153.20;53.92;;;9.40;99.90;;;;;;5029905;28;20075;-88
2021/11/14 00:09:19;;;;;;;226.07;58.88;;;9.40;99.90;;;;;;5030956;28;20061;-89
2021/11/14 00:11:45;;;;;;;158.10;52.33;;;9.40;99.90;;;;;;5027677;28;20026;-89
2021/11/14 00:14:10;;;;;;;127.63;48.97;;;9.40;99.90;;;;;;5029677;28;20025;-89
2021/11/14 00:16:36;;;;;;;136.85;48.50;;;9.50;99.90;;;;;;5033211;28;20466;-89
2021/11/14 00:19:03;;;;;;;106.55;40.33;;;9.50;99.90;;;;;;5030375;28;20033;-88
2021/11/14 00:21:30;;;;;;;118.35;43.40;;;9.50;99.90;;;;;;5026027;28;20072;-88
2021/11/14 00:23:57;;;;;;;97.95;41.30;;;9.40;99.90;;;;;;5032976;28;20025;-88
2021/11/14 00:26:22;;;;;;;126.20;42.97;;;9.50;99.90;;;;;;5033977;28;20393;-89
2021/11/14 00:28:49;;;;;;;87.60;38.85;;;9.50;99.90;;;;;;5032926;28;20040;-89
2021/11/14 00:31:18;;;;;;;101.70;40.80;;;9.40;99.90;;;;;;5030360;28;20017;-89
2021/11/14 00:33:46;;;;;;;72.47;35.00;;;9.50;99.90;;;;;;5031142;28;20024;-88
2021/11/14 00:36:14;;;;;;;85.22;37.08;;;9.50;99.90;;;;;;5028696;28;20496;-89
2021/11/14 00:38:40;;;;;;;76.90;33.25;;;9.40;99.90;;;;;;5023372;28;20030;-89
2021/11/14 00:41:07;;;;;;;69.85;32.20;;;9.40;99.90;;;;;;5023620;28;20414;-89
2021/11/14 00:43:34;;;;;;;65.72;31.13;;;9.50;99.90;;;;;;5034180;28;20061;-88
2021/11/14 00:46:01;;;;;;;75.45;33.13;;;9.40;99.90;;;;;;5029945;28;20100;-88
2021/11/14 00:48:27;;;;;;;71.00;32.20;;;9.40;99.90;;;;;;5035356;28;20052;-87
2021/11/14 00:50:53;;;;;;;72.88;32.30;;;9.40;99.90;;;;;;5032488;28;20037;-89
2021/11/14 00:53:19;;;;;;;98.10;34.58;;;9.40;99.90;;;;;;5033876;28;20128;-89
2021/11/14 00:55:46;;;;;;;74.40;33.13;;;9.40;99.90;;;;;;5032855;28;20477;-89
2021/11/14 00:58:12;;;;;;;63.53;28.17;;;9.40;99.90;;;;;;5033917;28;20129;-88
2021/11/14 01:00:38;;;;;;;74.65;31.85;;;9.40;99.90;;;;;;5032761;28;20037;-89
2021/11/14 01:03:07;;;;;;;71.93;30.77;;;9.40;99.90;;;;;;5031184;28;20053;-88
2021/11/14 01:05:35;;;;;;;70.57;31.33;;;9.40;99.90;;;;;;5032801;28;20060;-88
2021/11/14 01:08:02;;;;;;;88.47;33.78;;;9.40;99.90;;;;;;5031993;28;20041;-89
2021/11/14 01:10:33;;;;;;;130.23;36.08;;;9.30;99.90;;;;;;5031913;28;20083;-89
2021/11/14 01:12:59;;;;;;;124.00;35.22;;;9.30;99.90;;;;;;5030253;28;20040;-88
2021/11/14 01:15:26;;;;;;;99.00;33.90;;;9.30;99.90;;;;;;5022461;28;20029;-89
2021/11/14 01:17:52;;;;;;;82.75;33.88;;;9.40;99.90;;;;;;5030948;28;20486;-89
2021/11/14 01:20:22;;;;;;;107.97;35.50;;;9.30;99.90;;;;;;5032486;28;20180;-89
2021/11/14 01:22:49;;;;;;;105.28;34.28;;;9.30;99.90;;;;;;5034871;28;20021;-89
2021/11/14 01:25:16;;;;;;;81.00;31.45;;;9.30;99.90;;;;;;5034617;28;20474;-89
2021/11/14 01:27:42;;;;;;;74.80;31.10;;;9.30;99.90;;;;;;5031111;28;20438;-89
2021/11/14 01:30:13;;;;;;;69.97;29.77;;;9.30;99.90;;;;;;5031900;28;20029;-89
2021/11/14 01:32:39;;;;;;;77.25;30.45;;;9.30;99.90;;;;;;5023783;28;20054;-88
2021/11/14 01:35:06;;;;;;;72.90;29.98;;;9.20;99.90;;;;;;5019829;28;20104;-88
2021/11/14 01:37:32;;;;;;;81.40;31.35;;;9.20;99.90;;;;;;5016252;28;20486;-89
2021/11/14 01:39:58;;;;;;;62.65;27.35;;;9.20;99.90;;;;;;5033201;28;20031;-89
2021/11/14 01:42:23;;;;;;;75.95;31.65;;;9.20;99.90;;;;;;5032101;28;20029;-89
2021/11/14 01:44:49;;;;;;;70.05;29.58;;;9.20;99.90;;;;;;5024669;28;20061;-89
2021/11/14 01:47:15;;;;;;;65.80;30.20;;;9.20;99.90;;;;;;5031875;28;20041;-89
2021/11/14 01:49:41;;;;;;;67.45;29.38;;;9.10;99.90;;;;;;5034615;28;20026;-89
2021/11/14 01:52:17;;;;;;;73.30;31.05;;;9.20;99.90;;;;;;5031723;28;20017;-88
2021/11/14 01:54:43;;;;;;;75.10;30.13;;;9.10;99.90;;;;;;5031620;28;20379;-90
2021/11/14 01:57:09;;;;;;;77.25;30.98;;;9.10;99.90;;;;;;5032669;28;20120;-89
2021/11/14 01:59:36;;;;;;;75.30;30.13;;;9.10;99.90;;;;;;5029482;28;20053;-90
2021/11/14 02:02:02;;;;;;;82.38;30.83;;;9.10;99.90;;;;;;5031856;28;20029;-88
2021/11/14 02:04:27;;;;;;;81.88;30.55;;;9.10;99.90;;;;;;5022683;28;20033;-89
2021/11/14 02:06:53;;;;;;;87.20;33.17;;;9.10;99.90;;;;;;5028892;28;20117;-90
2021/11/14 02:09:18;;;;;;;65.63;27.75;;;9.10;99.90;;;;;;5031941;28;20114;-89
2021/11/14 02:11:44;;;;;;;70.75;29.40;;;9.10;99.90;;;;;;5031565;28;20021;-89
2021/11/14 02:14:10;;;;;;;67.45;28.88;;;9.10;99.90;;;;;;5030176;28;20025;-90
2021/11/14 02:16:36;;;;;;;72.60;28.55;;;9.10;99.90;;;;;;5024359;28;20026;-89
2021/11/14 02:19:02;;;;;;;71.72;28.83;;;9.10;99.90;;;;;;5028923;28;20033;-90
2021/11/14 02:21:27;;;;;;;72.50;29.40;;;9.10;99.90;;;;;;5032873;28;20034;-89
2021/11/14 02:23:54;;;;;;;73.47;30.38;;;9.10;99.90;;;;;;5028480;28;20029;-89
2021/11/14 02:26:22;;;;;;;72.20;28.73;;;9.10;99.90;;;;;;5027880;28;20501;-90
2021/11/14 02:28:49;;;;;;;69.22;29.40;;;9.10;99.90;;;;;;5031266;28;20448;-89
2021/11/14 02:31:15;;;;;;;74.60;29.00;;;9.10;99.90;;;;;;5032139;28;20060;-89
2021/11/14 02:33:40;;;;;;;67.97;28.38;;;9.10;99.90;;;;;;5033741;28;20057;-89
2021/11/14 02:36:08;;;;;;;79.55;30.15;;;9.10;99.90;;;;;;5040433;28;20374;-89
2021/11/14 02:38:34;;;;;;;75.35;29.02;;;9.00;99.90;;;;;;5026717;28;20083;-90
2021/11/14 02:41:01;;;;;;;87.38;30.02;;;9.10;99.90;;;;;;5030927;28;21502;-89
2021/11/14 02:43:28;;;;;;;79.88;31.23;;;9.00;99.90;;;;;;5030700;28;20069;-89
2021/11/14 02:45:53;;;;;;;68.13;29.70;;;9.00;99.90;;;;;;5023145;28;20026;-88
2021/11/14 02:48:20;;;;;;;75.00;30.33;;;9.00;99.90;;;;;;5030540;28;20111;-89
2021/11/14 02:50:49;;;;;;;69.82;28.35;;;9.00;99.90;;;;;;5030900;28;20033;-89
2021/11/14 02:53:15;;;;;;;75.22;26.67;;;9.00;99.90;;;;;;5030852;28;20053;-90
2021/11/14 02:55:42;;;;;;;69.03;27.83;;;9.00;99.90;;;;;;5032594;28;20052;-89
2021/11/14 02:58:08;;;;;;;62.83;27.65;;;9.00;99.90;;;;;;5032347;28;20032;-89
2021/11/14 03:00:39;;;;;;;67.07;28.30;;;9.10;99.90;;;;;;5045668;28;20084;-89
2021/11/14 03:03:05;;;;;;;66.85;28.42;;;9.00;99.90;;;;;;5034458;28;20025;-89
2021/11/14 03:05:32;;;;;;;64.22;26.83;;;9.00;99.90;;;;;;5052380;28;20467;-89
2021/11/14 03:07:58;;;;;;;59.70;26.65;;;9.00;99.90;;;;;;5046738;28;20044;-90
2021/11/14 03:10:29;;;;;;;64.20;28.63;;;9.00;99.90;;;;;;5034726;28;20028;-89
2021/11/14 03:12:58;;;;;;;61.10;26.73;;;9.00;99.90;;;;;;5042549;28;20484;-90
2021/11/14 03:15:25;;;;;;;56.38;27.27;;;9.00;99.90;;;;;;5049282;28;20025;-89
2021/11/14 03:17:50;;;;;;;75.38;27.83;;;9.00;99.90;;;;;;5031397;28;20040;-89
2021/11/14 03:20:17;;;;;;;75.40;29.58;;;9.00;99.90;;;;;;5047341;28;20025;-89
2021/11/14 03:22:42;;;;;;;63.40;28.98;;;9.00;99.90;;;;;;5032344;28;20040;-89
2021/11/14 03:25:09;;;;;;;67.40;29.13;;;9.00;99.90;;;;;;5026018;28;20009;-89
2021/11/14 03:27:34;;;;;;;69.18;30.70;;;9.00;99.90;;;;;;5020348;28;20067;-89
2021/11/14 03:30:00;;;;;;;64.97;28.83;;;9.00;99.90;;;;;;5051902;28;20052;-90
2021/11/14 03:32:25;;;;;;;69.47;29.27;;;9.10;99.90;;;;;;5053055;28;20079;-88
2021/11/14 03:34:51;;;;;;;66.85;28.60;;;9.10;99.90;;;;;;5034677;28;20029;-89
2021/11/14 03:37:19;;;;;;;70.57;29.80;;;9.10;99.90;;;;;;5032268;28;20112;-89
2021/11/14 03:39:46;;;;;;;69.25;30.48;;;9.10;99.90;;;;;;5052498;28;20432;-89
2021/11/14 03:42:12;;;;;;;80.88;31.45;;;9.00;99.90;;;;;;5051620;28;20025;-89
2021/11/14 03:44:38;;;;;;;77.53;30.05;;;9.00;99.90;;;;;;5034250;28;20026;-89
2021/11/14 03:47:04;;;;;;;70.40;30.30;;;9.10;99.90;;;;;;5051980;28;20484;-89
2021/11/14 03:49:30;;;;;;;79.18;30.70;;;9.10;99.90;;;;;;5037114;28;20060;-89
2021/11/14 03:51:56;;;;;;;77.65;32.20;;;9.10;99.90;;;;;;5034796;28;20385;-90
2021/11/14 03:54:23;;;;;;;73.50;31.45;;;9.10;99.90;;;;;;5036250;28;20021;-89
2021/11/14 03:56:49;;;;;;;77.97;31.63;;;9.10;99.90;;;;;;5038910;28;20056;-89
2021/11/14 03:59:15;;;;;;;84.35;33.63;;;9.20;99.90;;;;;;5032968;28;20103;-89
2021/11/14 04:01:40;;;;;;;84.47;34.08;;;9.20;99.90;;;;;;5039006;28;20020;-89
2021/11/14 04:04:06;;;;;;;81.40;31.98;;;9.20;99.90;;;;;;5035909;28;20036;-89
2021/11/14 04:06:32;;;;;;;79.97;31.85;;;9.20;99.90;;;;;;5036833;28;20140;-89
2021/11/14 04:08:59;;;;;;;88.78;33.67;;;9.20;99.90;;;;;;5034138;28;20041;-89
2021/11/14 04:11:25;;;;;;;92.90;35.20;;;9.20;99.90;;;;;;5033066;28;20075;-89
2021/11/14 04:13:51;;;;;;;88.13;34.30;;;9.20;99.90;;;;;;5041170;28;20028;-89
2021/11/14 04:16:16;;;;;;;93.70;34.55;;;9.20;99.90;;;;;;5029922;28;20040;-90
2021/11/14 04:18:42;;;;;;;83.75;32.08;;;9.20;99.90;;;;;;5047910;28;20078;-90
2021/11/14 04:21:08;;;;;;;86.00;32.85;;;9.20;99.90;;;;;;5035004;28;20071;-90
2021/11/14 04:23:35;;;;;;;89.35;33.42;;;9.20;99.90;;;;;;5036138;28;20025;-90
2021/11/14 04:26:01;;;;;;;91.00;35.25;;;9.20;99.90;;;;;;5027460;28;20024;-89
2021/11/14 04:28:27;;;;;;;86.57;34.17;;;9.20;99.90;;;;;;5039968;28;20489;-89
2021/11/14 04:30:52;;;;;;;100.82;35.55;;;9.20;99.90;;;;;;5041127;28;20078;-89
2021/11/14 04:33:20;;;;;;;103.65;37.72;;;9.20;99.90;;;;;;5033235;28;20116;-89
2021/11/14 04:35:46;;;;;;;90.63;33.60;;;9.20;99.90;;;;;;5035695;28;20544;-89
2021/11/14 04:38:12;;;;;;;105.18;36.90;;;9.20;99.90;;;;;;5036572;28;20055;-89
2021/11/14 04:40:40;;;;;;;95.03;34.58;;;9.20;99.90;;;;;;5031448;28;20029;-89
2021/11/14 04:43:08;;;;;;;98.53;36.05;;;9.30;99.90;;;;;;5036555;28;20029;-89
2021/11/14 04:45:34;;;;;;;89.78;34.05;;;9.30;99.90;;;;;;5053389;28;20516;-89
2021/11/14 04:47:59;;;;;;;91.63;35.17;;;9.30;99.90;;;;;;5033779;28;20037;-89
2021/11/14 04:50:25;;;;;;;95.95;36.50;;;9.30;99.90;;;;;;5030852;28;20033;-89
2021/11/14 04:52:53;;;;;;;99.95;39.67;;;9.30;99.90;;;;;;5036726;28;20021;-88
2021/11/14 04:55:18;;;;;;;107.55;36.53;;;9.30;99.90;;;;;;5036005;28;20083;-89
2021/11/14 04:57:51;;;;;;;107.35;38.45;;;9.30;99.90;;;;;;5033164;28;20080;-89
2021/11/14 05:00:19;;;;;;;;;;;9.40;99.90;;;;;;5023857;28;20130;-89
2021/11/14 05:02:44;;;;;;;98.97;33.53;;;9.30;99.90;;;;;;5053552;28;20341;-89
2021/11/14 05:05:10;;;;;;;105.15;36.60;;;9.30;99.90;;;;;;5032449;28;20032;-89
2021/11/14 05:07:35;;;;;;;97.93;35.90;;;9.30;99.90;;;;;;5053267;28;20029;-89
2021/11/14 05:10:01;;;;;;;90.53;34.90;;;9.30;99.90;;;;;;5030609;28;20029;-89
2021/11/14 05:12:27;;;;;;;102.85;38.17;;;9.40;99.90;;;;;;5031737;28;20025;-89
2021/11/14 05:14:52;;;;;;;116.75;40.42;;;9.40;99.90;;;;;;5048637;28;20084;-89
2021/11/14 05:17:18;;;;;;;101.43;37.75;;;9.30;99.90;;;;;;5044984;28;20040;-89
2021/11/14 05:19:43;;;;;;;107.68;40.75;;;9.30;99.90;;;;;;5033137;28;20119;-89
2021/11/14 05:22:09;;;;;;;104.45;36.95;;;9.30;99.90;;;;;;5029233;28;20025;-88
2021/11/14 05:24:34;;;;;;;108.80;37.42;;;9.30;99.90;;;;;;5035133;28;20127;-89
2021/11/14 05:27:00;;;;;;;103.22;37.35;;;9.30;99.90;;;;;;5037693;28;20021;-89
2021/11/14 05:29:26;;;;;;;103.05;39.45;;;9.30;99.90;;;;;;5029416;28;20595;-89
2021/11/14 05:31:51;;;;;;;117.32;40.55;;;9.30;99.90;;;;;;5039838;28;20089;-89
2021/11/14 05:34:17;;;;;;;97.07;36.53;;;9.30;99.90;;;;;;5035311;28;20120;-89
2021/11/14 05:36:43;;;;;;;103.82;38.25;;;9.30;99.90;;;;;;5024558;28;20068;-89
2021/11/14 05:39:08;;;;;;;106.93;38.75;;;9.30;99.90;;;;;;5028967;28;20175;-89
2021/11/14 05:41:34;;;;;;;102.88;39.33;;;9.30;99.90;;;;;;5031906;28;20024;-89
2021/11/14 05:43:59;;;;;;;114.40;40.00;;;9.30;99.90;;;;;;5029754;28;20480;-88
2021/11/14 05:46:25;;;;;;;103.20;40.40;;;9.40;99.90;;;;;;5025403;28;20044;-89
2021/11/14 05:48:51;;;;;;;116.82;41.45;;;9.40;99.90;;;;;;5024945;28;20401;-88
2021/11/14 05:51:16;;;;;;;99.57;38.25;;;9.30;99.90;;;;;;5029092;28;20404;-90
2021/11/14 05:53:42;;;;;;;100.75;38.92;;;9.30;99.90;;;;;;5027279;28;20075;-89
2021/11/14 05:56:07;;;;;;;102.18;38.20;;;9.40;99.90;;;;;;5030814;28;20017;-89
2021/11/14 05:58:45;;;;;;;94.13;37.42;;;9.40;99.90;;;;;;5036109;28;20035;-89
2021/11/14 06:01:18;;;;;;;98.30;37.83;;;9.30;99.90;;;;;;5027569;28;20105;-88
2021/11/14 06:04:05;;;;;;;101.55;39.75;;;9.40;99.90;;;;;;5036493;28;20056;-94
2021/11/14 06:06:30;;;;;;;97.60;39.03;;;9.30;99.90;;;;;;5036083;28;20118;-93
2021/11/14 06:08:56;;;;;;;104.97;40.45;;;9.30;99.90;;;;;;5052190;28;20485;-93
2021/11/14 06:11:25;;;;;;;94.18;37.83;;;9.30;99.90;;;;;;5035806;28;20267;-95
2021/11/14 06:13:52;;;;;;;89.57;37.45;;;9.30;99.90;;;;;;5033688;28;20028;-94
2021/11/14 06:16:18;;;;;;;94.93;38.72;;;9.30;99.90;;;;;;5037053;28;20025;-93
2021/11/14 06:18:44;;;;;;;89.00;38.55;;;9.30;99.90;;;;;;5045922;28;20040;-93
2021/11/14 06:21:09;;;;;;;94.97;39.47;;;9.30;99.90;;;;;;5034100;28;20067;-93
2021/11/14 06:23:35;;;;;;;91.75;39.28;;;9.30;99.90;;;;;;5031156;28;20366;-93
2021/11/14 06:26:01;;;;;;;97.82;39.17;;;9.30;99.90;;;;;;5027439;28;20504;-93
2021/11/14 06:28:26;;;;;;;85.95;35.40;;;9.30;99.90;;;;;;5038728;28;20029;-92
2021/11/14 06:30:52;;;;;;;91.72;39.95;;;9.30;99.90;;;;;;5024278;28;20039;-92
2021/11/14 06:33:18;;;;;;;92.43;37.45;;;9.30;99.90;;;;;;5033034;28;20543;-93
2021/11/14 06:35:43;;;;;;;91.70;36.85;;;9.30;99.90;;;;;;5036771;28;20032;-92
2021/11/14 06:38:09;;;;;;;86.63;36.38;;;9.30;99.90;;;;;;5032698;28;20029;-93
2021/11/14 06:40:35;;;;;;;87.22;38.28;;;9.30;99.90;;;;;;5039347;28;20650;-93
2021/11/14 06:43:00;;;;;;;93.53;37.42;;;9.30;99.90;;;;;;5036920;28;20047;-92
2021/11/14 06:45:26;;;;;;;88.90;36.10;;;9.40;99.90;;;;;;5035799;28;20021;-90
2021/11/14 06:47:51;;;;;;;89.78;35.70;;;9.30;99.90;;;;;;5035020;28;20033;-91
2021/11/14 06:50:17;;;;;;;82.97;35.13;;;9.30;99.90;;;;;;5035149;28;20048;-92
2021/11/14 06:52:45;;;;;;;92.68;36.53;;;9.30;99.90;;;;;;5036919;28;20476;-92
2021/11/14 06:55:12;;;;;;;76.53;32.65;;;9.30;99.90;;;;;;5035196;28;20037;-92
2021/11/14 06:57:38;;;;;;;77.25;33.58;;;9.30;99.90;;;;;;5033281;28;20021;-92
2021/11/14 07:00:10;;;;;;;74.72;31.02;;;9.30;99.90;;;;;;5033703;28;20033;-90
2021/11/14 07:02:36;;;;;;;82.50;32.33;;;9.30;99.90;;;;;;5047028;28;20046;-91
2021/11/14 07:05:01;;;;;;;81.70;33.40;;;9.40;99.90;;;;;;5036659;28;20029;-91
2021/11/14 07:07:27;;;;;;;79.72;32.40;;;9.40;99.90;;;;;;5034177;28;20112;-91
2021/11/14 07:09:52;;;;;;;79.07;32.95;;;9.40;99.90;;;;;;5050219;28;20481;-92
2021/11/14 07:12:18;;;;;;;75.05;32.08;;;9.40;99.90;;;;;;5036728;28;20115;-91
2021/11/14 07:14:43;;;;;;;72.10;30.98;;;9.40;99.90;;;;;;5054046;28;20032;-92
2021/11/14 07:17:09;;;;;;;74.25;31.33;;;9.50;99.90;;;;;;5053111;28;20040;-91
2021/11/14 07:19:34;;;;;;;72.60;29.00;;;9.50;99.90;;;;;;5033984;28;20389;-94
2021/11/14 07:22:00;;;;;;;74.70;31.33;;;9.50;99.90;;;;;;5034007;28;20481;-91
2021/11/14 07:24:26;;;;;;;70.25;29.20;;;9.50;99.90;;;;;;5033145;28;20067;-91
2021/11/14 07:26:51;;;;;;;76.53;32.15;;;9.50;99.90;;;;;;5053807;28;20035;-92
2021/11/14 07:29:17;;;;;;;72.82;30.75;;;9.50;99.90;;;;;;5052943;28;20041;-92
2021/11/14 07:31:43;;;;;;;67.00;29.13;;;9.50;99.90;;;;;;5056438;28;20025;-92
2021/11/14 07:34:09;;;;;;;71.40;31.30;;;9.50;99.90;;;;;;5043608;28;20029;-92
2021/11/14 07:36:34;;;;;;;73.78;30.92;;;9.60;99.90;;;;;;5027102;28;20076;-90
2021/11/14 07:39:00;;;;;;;63.50;29.30;;;9.50;99.90;;;;;;5030401;28;20428;-92
2021/11/14 07:41:26;;;;;;;64.60;30.13;;;9.60;99.90;;;;;;5039226;28;20482;-91
2021/11/14 07:43:52;;;;;;;70.03;31.73;;;9.60;99.90;;;;;;5030778;28;20033;-93
2021/11/14 07:46:17;;;;;;;72.93;31.15;;;9.60;99.90;;;;;;5032506;28;20088;-92
2021/11/14 07:48:43;;;;;;;71.80;29.73;;;9.60;99.90;;;;;;5025882;28;20037;-91
2021/11/14 07:51:10;;;;;;;70.03;29.52;;;9.70;99.90;;;;;;5037513;28;20024;-93
2021/11/14 07:53:36;;;;;;;68.30;29.90;;;9.70;99.90;;;;;;5038888;28;20480;-92
2021/11/14 07:56:01;;;;;;;66.60;29.38;;;9.70;99.90;;;;;;5041295;28;20039;-93
2021/11/14 07:58:27;;;;;;;61.42;28.33;;;9.70;99.90;;;;;;5037976;28;20078;-93
2021/11/14 08:00:53;;;;;;;67.63;30.40;;;9.80;99.90;;;;;;5038492;28;20055;-92
2021/11/14 08:03:18;;;;;;;64.22;27.75;;;9.80;99.90;;;;;;5036292;28;20058;-92
2021/11/14 08:05:45;;;;;;;65.40;29.35;;;9.80;99.90;;;;;;5035213;28;20025;-92
2021/11/14 08:08:11;;;;;;;67.38;29.10;;;9.80;99.90;;;;;;5042640;28;20026;-91
2021/11/14 08:10:40;;;;;;;66.63;29.17;;;9.80;99.90;;;;;;5027835;28;20056;-91
2021/11/14 08:13:07;;;;;;;62.75;26.98;;;9.80;99.90;;;;;;5034243;28;20040;-91
2021/11/14 08:15:35;;;;;;;59.97;28.38;;;9.90;99.90;;;;;;5044130;28;20036;-92
2021/11/14 08:18:00;;;;;;;57.10;27.55;;;9.90;99.90;;;;;;5037322;28;20021;-92
2021/11/14 08:20:26;;;;;;;61.85;28.27;;;9.90;99.90;;;;;;5020579;28;20028;-92
2021/11/14 08:22:51;;;;;;;55.17;26.88;;;9.90;99.90;;;;;;5038109;28;20021;-91
2021/11/14 08:25:18;;;;;;;55.42;25.95;;;9.90;99.90;;;;;;5036774;28;20028;-91
2021/11/14 08:27:45;;;;;;;58.25;27.25;;;9.90;99.90;;;;;;5031733;28;20473;-91
2021/11/14 08:30:15;;;;;;;65.35;27.90;;;9.90;99.90;;;;;;5033734;28;20055;-92
2021/11/14 08:32:41;;;;;;;57.30;25.83;;;9.90;99.90;;;;;;5018977;28;20462;-92
2021/11/14 08:35:07;;;;;;;65.20;28.27;;;9.90;99.90;;;;;;5037207;28;20052;-90
2021/11/14 08:37:33;;;;;;;60.30;26.63;;;9.90;99.90;;;;;;5036205;28;20032;-91
2021/11/14 08:40:00;;;;;;;58.63;26.65;;;9.90;99.90;;;;;;5041199;28;20467;-92
2021/11/14 08:42:26;;;;;;;60.78;27.38;;;9.90;99.90;;;;;;5048481;28;20025;-92
2021/11/14 08:44:51;;;;;;;59.88;26.75;;;9.90;99.90;;;;;;5057402;28;20382;-93
2021/11/14 08:47:17;;;;;;;54.72;24.40;;;10.00;99.90;;;;;;5058762;28;20463;-92
2021/11/14 08:49:43;;;;;;;54.97;26.23;;;10.00;99.90;;;;;;5038206;28;20471;-92
2021/11/14 08:52:13;;;;;;;58.63;26.70;;;9.90;99.90;;;;;;5054451;28;20478;-92
2021/11/14 08:54:38;;;;;;;54.90;25.58;;;9.90;99.90;;;;;;5033799;28;20026;-91
2021/11/14 08:57:05;;;;;;;57.13;27.02;;;9.90;99.90;;;;;;5036001;28;20028;-93
2021/11/14 08:59:33;;;;;;;54.67;24.98;;;9.90;99.90;;;;;;5030145;28;20064;-92
2021/11/14 09:02:03;;;;;;;54.53;24.70;;;10.00;99.90;;;;;;5030725;28;20052;-92
2021/11/14 09:04:29;;;;;;;57.15;26.40;;;9.90;99.90;;;;;;5035028;28;20025;-91
2021/11/14 09:06:55;;;;;;;54.60;26.20;;;9.90;99.90;;;;;;5025841;28;20022;-93
2021/11/14 09:09:22;;;;;;;43.25;22.08;;;9.90;99.90;;;;;;5035087;28;20037;-93
2021/11/14 09:11:49;;;;;;;53.63;23.80;;;9.90;99.90;;;;;;5035641;28;20025;-91
2021/11/14 09:14:15;;;;;;;56.45;25.20;;;10.00;99.90;;;;;;5037823;28;20035;-93
2021/11/14 09:16:42;;;;;;;54.65;25.80;;;9.90;99.90;;;;;;5030018;28;20086;-92
2021/11/14 09:19:09;;;;;;;51.47;23.15;;;10.00;99.90;;;;;;5020027;28;20072;-93
2021/11/14 09:21:36;;;;;;;54.03;24.40;;;10.00;99.90;;;;;;5035325;28;20574;-91
2021/11/14 09:24:02;;;;;;;51.40;23.40;;;10.00;99.90;;;;;;5036732;28;20049;-93
2021/11/14 09:26:27;;;;;;;54.60;23.83;;;10.00;99.90;;;;;;5028878;28;20075;-93
2021/11/14 09:28:53;;;;;;;50.60;24.08;;;10.00;99.90;;;;;;5028022;28;20100;-94
2021/11/14 09:31:19;;;;;;;53.08;22.55;;;10.00;99.90;;;;;;5029329;28;20014;-93
2021/11/14 09:33:45;;;;;;;50.60;22.08;;;10.00;99.90;;;;;;5029612;28;20520;-92
2021/11/14 09:36:11;;;;;;;57.35;23.65;;;10.10;99.90;;;;;;5033759;28;20033;-94
2021/11/14 09:38:38;;;;;;;47.78;22.42;;;10.10;99.90;;;;;;5034867;28;20106;-93
2021/11/14 09:41:09;;;;;;;54.97;23.15;;;10.10;99.90;;;;;;5036840;28;20025;-93
2021/11/14 09:43:36;;;;;;;50.65;22.35;;;10.10;99.90;;;;;;5035391;28;20029;-93
2021/11/14 09:46:02;;;;;;;54.50;24.77;;;10.10;99.90;;;;;;5035682;28;20057;-95
2021/11/14 09:48:28;;;;;;;48.45;22.67;;;10.10;99.90;;;;;;5035862;28;20446;-94
2021/11/14 09:50:55;;;;;;;50.75;23.38;;;10.10;99.90;;;;;;5036439;28;20017;-93
2021/11/14 09:53:24;;;;;;;47.08;22.83;;;10.10;99.90;;;;;;5037682;28;20022;-94
2021/11/14 09:55:50;;;;;;;54.88;22.90;;;10.10;99.90;;;;;;5035292;28;20032;-93
2021/11/14 09:58:16;;;;;;;55.50;23.30;;;10.10;99.90;;;;;;5034755;28;20061;-93
2021/11/14 10:00:42;;;;;;;47.33;20.25;;;10.10;99.90;;;;;;5035191;28;20052;-93
2021/11/14 10:03:09;;;;;;;54.10;23.08;;;10.20;99.90;;;;;;5035819;28;20021;-92
2021/11/14 10:05:37;;;;;;;51.40;21.70;;;10.20;99.90;;;;;;5031821;28;20032;-91
2021/11/14 10:08:05;;;;;;;49.00;21.35;;;10.20;99.90;;;;;;5033306;28;20132;-94
2021/11/14 10:10:36;;;;;;;48.17;21.88;;;10.30;99.90;;;;;;5032193;28;20397;-93
2021/11/14 10:13:27;;;;;;;47.70;20.27;;;10.30;99.90;;;;;;5031069;28;20121;-93
2021/11/14 10:16:13;;;;;;;45.50;20.17;;;10.40;99.90;;;;;;5029344;28;20033;-92
2021/11/14 10:18:45;;;;;;;45.17;21.13;;;10.30;99.90;;;;;;5021816;28;20029;-94
2021/11/14 10:21:12;;;;;;;44.17;20.27;;;10.40;99.90;;;;;;5028001;28;20040;-93
2021/11/14 10:23:38;;;;;;;41.67;19.40;;;10.40;99.90;;;;;;5033015;28;20104;-92
2021/11/14 10:26:11;;;;;;;40.40;18.98;;;10.50;99.90;;;;;;5030378;28;20049;-93
2021/11/14 10:28:41;;;;;;;;;;;10.50;99.90;;;;;;5032422;28;20073;-93
2021/11/14 10:31:07;;;;;;;45.30;18.73;;;10.50;99.90;;;;;;5033436;28;20392;-93
2021/11/14 10:33:34;;;;;;;38.72;17.92;;;10.50;99.90;;;;;;5021870;28;20026;-94
2021/11/14 10:36:00;;;;;;;38.13;17.42;;;10.60;99.90;;;;;;5025772;28;20025;-93
2021/11/14 10:38:29;;;;;;;39.03;18.33;;;10.60;99.90;;;;;;5035693;28;20043;-91
2021/11/14 10:41:00;;;;;;;42.83;19.40;;;10.50;99.90;;;;;;5033212;28;20022;-92
2021/11/14 10:43:27;;;;;;;44.88;19.88;;;10.50;99.90;;;;;;5034339;28;20600;-93
2021/11/14 10:45:53;;;;;;;48.03;20.85;;;10.60;99.90;;;;;;5034352;28;20399;-91
2021/11/14 10:48:25;;;;;;;40.67;18.33;;;10.50;99.90;;;;;;5030829;28;20030;-92
2021/11/14 10:50:55;;;;;;;41.85;19.35;;;10.60;99.90;;;;;;5041229;28;20046;-93
2021/11/14 10:53:23;;;;;;;39.92;18.73;;;10.60;99.90;;;;;;5031191;28;20456;-92
2021/11/14 10:55:52;;;;;;;41.65;19.17;;;10.60;99.90;;;;;;5032950;28;20493;-93
2021/11/14 10:58:19;;;;;;;43.75;20.88;;;10.60;99.90;;;;;;5033932;28;20144;-92
2021/11/14 11:00:47;;;;;;;43.53;21.55;;;10.60;99.90;;;;;;5034804;28;20052;-93
2021/11/14 11:03:13;;;;;;;42.65;19.33;;;10.60;99.90;;;;;;5036083;28;20021;-92
2021/11/14 11:05:39;;;;;;;41.88;20.23;;;10.70;99.90;;;;;;5026952;28;20044;-93
2021/11/14 11:08:18;;;;;;;45.65;20.85;;;10.70;99.90;;;;;;5029372;28;20010;-93
2021/11/14 11:10:47;;;;;;;42.90;19.58;;;10.70;99.90;;;;;;5023163;28;20033;-91
2021/11/14 11:13:40;;;;;;;37.67;18.33;;;10.80;99.90;;;;;;5020588;28;20033;-93
2021/11/14 11:16:08;;;;;;;39.95;19.48;;;10.90;99.90;;;;;;5028981;28;20029;-92
2021/11/14 11:18:34;;;;;;;40.47;18.77;;;10.90;99.90;;;;;;5031000;28;20033;-92
2021/11/14 11:21:04;;;;;;;43.70;19.35;;;10.90;99.90;;;;;;5031673;28;20014;-92
2021/11/14 11:23:31;;;;;;;40.50;20.20;;;10.90;99.90;;;;;;5034347;28;20025;-91
2021/11/14 11:26:00;;;;;;;44.47;19.80;;;11.00;99.90;;;;;;5034801;28;20496;-93
2021/11/14 11:28:29;;;;;;;41.42;18.83;;;11.00;99.90;;;;;;5029417;28;20030;-92
2021/11/14 11:30:58;;;;;;;43.95;20.40;;;10.90;99.90;;;;;;5034957;28;20021;-92
2021/11/14 11:33:25;;;;;;;43.63;20.08;;;10.90;99.90;;;;;;5035312;28;20028;-92
2021/11/14 11:35:52;;;;;;;39.28;18.77;;;10.90;99.90;;;;;;5033689;28;20025;-91
2021/11/14 11:38:21;;;;;;;42.10;20.48;;;10.90;99.90;;;;;;5026143;28;20493;-91
2021/11/14 11:40:48;;;;;;;40.42;18.92;;;10.90;99.90;;;;;;5034352;28;20029;-92
2021/11/14 11:43:14;;;;;;;43.95;19.90;;;10.90;99.90;;;;;;5033998;28;20060;-91
2021/11/14 11:45:44;;;;;;;40.15;20.13;;;10.90;99.90;;;;;;5035023;28;20025;-91
2021/11/14 11:48:25;;;;;;;41.47;21.08;;;10.90;99.90;;;;;;5032589;28;20041;-92
2021/11/14 11:50:51;;;;;;;41.72;19.55;;;11.00;99.90;;;;;;5036388;28;20030;-94
2021/11/14 11:53:23;;;;;;;44.28;19.83;;;11.00;99.90;;;;;;5035208;28;20033;-93
2021/11/14 11:56:05;;;;;;;39.30;18.67;;;11.00;99.90;;;;;;5035692;28;20505;-92
2021/11/14 11:58:44;;;;;;;39.83;20.30;;;11.10;99.90;;;;;;5031327;28;20044;-92
2021/11/14 12:01:25;;;;;;;36.55;19.15;;;11.10;99.90;;;;;;5029939;28;20060;-93
2021/11/14 12:03:52;;;;;;;40.08;20.08;;;11.00;99.90;;;;;;5032565;28;20037;-93
2021/11/14 12:06:29;;;;;;;40.60;20.00;;;11.00;99.90;;;;;;5026791;28;20033;-93
2021/11/14 12:08:57;;;;;;;42.20;21.33;;;11.00;99.90;;;;;;5027208;28;20029;-93
2021/11/14 12:11:31;;;;;;;43.30;22.17;;;11.00;99.90;;;;;;5037873;28;20032;-93
2021/11/14 12:14:13;;;;;;;46.40;23.20;;;11.10;99.90;;;;;;5036855;28;20039;-94
2021/11/14 12:16:39;;;;;;;37.25;19.52;;;11.10;99.90;;;;;;5027321;28;20026;-89
2021/11/14 12:19:05;;;;;;;40.17;19.92;;;11.10;99.90;;;;;;5028708;28;21665;-92
2021/11/14 12:21:31;;;;;;;41.00;19.67;;;11.20;99.90;;;;;;5030083;28;20112;-94
2021/11/14 12:24:04;;;;;;;46.90;22.55;;;11.20;99.90;;;;;;5031727;28;20036;-92
2021/11/14 12:26:34;;;;;;;36.45;20.10;;;11.20;99.90;;;;;;5031189;28;20366;-92
2021/11/14 12:29:05;;;;;;;40.35;21.08;;;11.10;99.90;;;;;;5036155;28;20131;-91
2021/11/14 12:31:44;;;;;;;39.50;20.60;;;11.20;99.90;;;;;;5035320;28;20040;-91
2021/11/14 12:34:26;;;;;;;42.13;20.63;;;11.20;99.90;;;;;;5033114;28;20037;-92